Time;durP1;ratioP1;P1;durP2;ratioP2;P2;SDS_P1;SDS_P2;PMS_P1;PMS_P2;Temp;Humidity;BMP_temperature;BMP_pressure;BME280_temperature;BME280_humidity;BME280_pressure;Samples;Min_cycle;Max_cycle;Signal;HPM_P1;HPM_P2
2022/08/10 00:08:28;;;;;;;0.80;0.80;;;;;;;19.04;87.92;102566.25;20953898;28;20060;-78
2022/08/10 00:18:29;;;;;;;1.00;0.80;;;;;;;19.02;88.03;102565.50;21010217;28;20052;-78
2022/08/10 00:28:37;;;;;;;0.60;0.60;;;;;;;19.02;88.06;102554.69;21044081;28;20075;-78
2022/08/10 00:38:39;;;;;;;0.70;0.70;;;;;;;19.01;87.96;102555.66;21051931;28;20113;-79
2022/08/10 00:48:41;;;;;;;0.80;0.80;;;;;;;19.00;87.96;102560.19;21058671;28;20044;-78
2022/08/10 00:58:42;;;;;;;1.40;0.88;;;;;;;19.00;87.71;102554.78;21019280;28;20500;-78
2022/08/10 01:09:07;;;;;;;0.80;0.80;;;;;;;19.00;87.89;102554.78;21051654;28;20101;-78
2022/08/10 01:19:46;;;;;;;0.85;0.85;;;;;;;18.98;87.53;102556.72;21000314;28;20482;-78
2022/08/10 01:30:06;;;;;;;0.70;0.70;;;;;;;18.71;87.41;102506.28;21050216;28;20052;-78
2022/08/10 01:40:12;;;;;;;0.80;0.80;;;;;;;18.77;87.66;102526.63;21048402;28;20054;-77
2022/08/10 01:50:26;;;;;;;0.90;0.90;;;;;;;18.96;87.74;102542.44;21038395;28;20443;-78
2022/08/10 02:00:29;;;;;;;0.77;0.77;;;;;;;18.94;87.46;102542.53;21037856;28;20733;-78
2022/08/10 02:10:32;;;;;;;1.02;0.90;;;;;;;18.26;87.78;102422.97;21008692;28;20094;-81
2022/08/10 02:20:42;;;;;;;5.60;2.90;;;;;;;18.90;87.18;102526.66;20928176;28;20052;-81
2022/08/10 02:30:44;;;;;;;6.32;2.10;;;;;;;18.55;87.49;102468.69;20925118;28;20492;-81
2022/08/10 02:40:53;;;;;;;2.20;1.55;;;;;;;18.67;87.82;102483.19;20923660;28;20043;-78
2022/08/10 02:51:19;;;;;;;4.50;3.78;;;;;;;18.92;87.26;102525.56;20937625;28;20131;-78
2022/08/10 03:01:43;;;;;;;5.68;3.70;;;;;;;18.87;87.14;102516.94;20953652;28;20051;-77
2022/08/10 03:11:45;;;;;;;7.72;3.53;;;;;;;18.70;87.72;102505.44;20970032;28;20051;-77
2022/08/10 03:22:07;;;;;;;4.15;3.65;;;;;;;18.68;87.72;102506.50;21047370;28;20047;-78
2022/08/10 03:32:09;;;;;;;4.50;4.05;;;;;;;18.73;87.76;102508.91;21044594;28;20101;-77
2022/08/10 03:42:11;;;;;;;5.63;4.35;;;;;;;18.51;87.55;102481.53;21023904;28;20048;-77
2022/08/10 03:52:14;;;;;;;5.00;4.10;;;;;;;18.65;87.53;102501.31;21040316;28;20048;-77
2022/08/10 04:02:16;;;;;;;5.15;4.07;;;;;;;18.62;87.21;102506.91;21043493;28;20060;-77
2022/08/10 04:12:38;;;;;;;5.53;4.63;;;;;;;18.53;87.52;102494.91;21020726;28;20048;-78
2022/08/10 04:22:40;;;;;;;5.88;4.15;;;;;;;18.55;87.68;102501.06;21053664;28;20056;-77
2022/08/10 04:32:42;;;;;;;4.30;3.60;;;;;;;18.54;87.73;102499.31;21038531;28;20055;-78
2022/08/10 04:42:45;;;;;;;6.00;4.00;;;;;;;18.30;87.26;102467.63;21054084;28;20408;-77
2022/08/10 04:52:47;;;;;;;6.88;4.18;;;;;;;18.48;87.47;102491.66;21017417;28;20429;-77
2022/08/10 05:02:49;;;;;;;5.20;4.40;;;;;;;18.45;87.76;102500.81;20970828;28;20048;-77
2022/08/10 05:12:51;;;;;;;6.30;4.70;;;;;;;18.14;88.22;102453.44;21035981;28;20496;-77
2022/08/10 05:22:53;;;;;;;5.63;4.03;;;;;;;18.26;89.15;102463.41;21053486;28;20055;-77
2022/08/10 05:32:54;;;;;;;4.70;4.00;;;;;;;18.33;90.22;102489.00;21008456;28;20049;-77
2022/08/10 05:43:04;;;;;;;6.25;4.18;;;;;;;18.37;91.46;102509.41;20951401;28;20044;-77
2022/08/10 05:53:05;;;;;;;6.70;4.93;;;;;;;18.23;92.63;102495.97;20920648;28;20053;-77
2022/08/10 06:03:32;;;;;;;4.97;4.47;;;;;;;18.36;93.82;102523.84;20929465;28;20047;-77
2022/08/10 06:24:16;;;;;;;5.22;4.57;;;;;;;18.22;95.74;102492.38;20906441;28;20052;-81
2022/08/10 06:34:34;;;;;;;5.65;3.95;;;;;;;18.29;96.70;102494.69;20904965;28;20044;-81
2022/08/10 06:44:39;;;;;;;4.10;2.90;;;;;;;17.76;96.91;102401.91;20931110;28;20052;-82
2022/08/10 06:54:41;;;;;;;2.75;2.10;;;;;;;18.17;96.64;102474.81;20934008;28;20405;-82
2022/08/10 07:04:59;;;;;;;2.40;2.05;;;;;;;18.34;96.74;102504.22;20896791;28;20041;-81
2022/08/10 07:15:02;;;;;;;3.45;1.70;;;;;;;18.44;96.78;102517.09;20893086;28;20170;-81
2022/08/10 07:25:05;;;;;;;2.25;2.03;;;;;;;18.39;96.53;102507.47;20893961;28;20048;-81
2022/08/10 07:35:10;;;;;;;5.85;1.70;;;;;;;18.52;95.99;102514.75;20907249;28;20048;-81
2022/08/10 07:45:12;;;;;;;1.93;1.40;;;;;;;18.53;95.63;102519.16;20925753;28;20048;-81
2022/08/10 07:55:18;;;;;;;1.67;1.50;;;;;;;18.41;95.93;102494.75;20904394;28;20049;-81
2022/08/10 08:05:40;;;;;;;2.55;1.50;;;;;;;18.29;95.86;102475.81;20915874;28;20513;-81
2022/08/10 08:16:05;;;;;;;1.27;1.17;;;;;;;18.57;95.90;102531.50;20906845;28;20060;-81
2022/08/10 08:26:22;;;;;;;1.73;1.30;;;;;;;18.61;94.69;102527.66;20878615;28;20121;-81
2022/08/10 08:36:24;;;;;;;3.00;1.25;;;;;;;18.66;94.21;102536.28;20897852;28;20076;-80
2022/08/10 08:46:43;;;;;;;2.13;1.50;;;;;;;18.72;94.55;102536.84;20892988;28;20041;-80
2022/08/10 08:57:35;;;;;;;1.42;1.33;;;;;;;18.75;94.80;102528.56;20907423;28;20042;-80
2022/08/10 09:08:13;;;;;;;1.30;1.20;;;;;;;18.75;94.87;102513.22;20882222;28;20041;-80
2022/08/10 09:18:30;;;;;;;2.50;1.45;;;;;;;18.77;94.56;102505.88;20906652;28;20322;-80
2022/08/10 09:28:37;;;;;;;1.45;1.17;;;;;;;18.23;94.12;102415.09;20904828;28;20049;-80
2022/08/10 09:39:02;;;;;;;0.82;0.82;;;;;;;18.59;93.82;102472.06;20897384;28;20110;-80
2022/08/10 09:49:37;;;;;;;1.25;1.05;;;;;;;18.77;93.46;102480.75;20915243;28;20152;-80
2022/08/10 09:59:58;;;;;;;3.97;1.33;;;;;;;18.71;93.49;102468.53;20901673;28;20125;-80
2022/08/10 10:10:05;;;;;;;1.35;1.17;;;;;;;18.77;93.64;102461.88;20914019;28;20140;-82
2022/08/10 10:20:43;;;;;;;1.70;1.33;;;;;;;18.79;94.09;102457.22;20909433;28;20574;-81
2022/08/10 10:31:11;;;;;;;1.25;1.15;;;;;;;18.71;95.09;102444.25;20923604;28;20836;-80
2022/08/10 10:41:35;;;;;;;1.20;1.10;;;;;;;18.44;94.90;102369.66;20890028;28;20044;-81
2022/08/10 10:52:03;;;;;;;1.20;1.10;;;;;;;18.77;95.00;102407.91;20896858;28;20378;-81
2022/08/10 11:02:23;;;;;;;1.73;1.20;;;;;;;18.78;94.63;102406.94;20882337;28;20653;-80
2022/08/10 11:12:45;;;;;;;1.33;1.23;;;;;;;18.79;94.30;102405.97;20903900;28;20044;-80
2022/08/10 11:23:17;;;;;;;1.38;1.20;;;;;;;18.78;94.26;102394.31;20887245;28;20489;-79
2022/08/10 11:33:27;;;;;;;1.17;1.08;;;;;;;18.80;93.94;102396.91;20893590;28;20127;-80
2022/08/10 11:43:38;;;;;;;1.85;1.00;;;;;;;18.80;93.39;102380.72;20902902;28;20053;-80
2022/08/10 11:53:43;;;;;;;2.28;1.02;;;;;;;18.80;93.12;102380.72;20898561;28;20061;-80
2022/08/10 12:03:45;;;;;;;2.10;1.17;;;;;;;18.81;92.59;102374.34;20902661;28;20045;-81
2022/08/10 12:13:53;;;;;;;1.10;0.82;;;;;;;18.64;92.67;102330.53;20890453;28;20049;-81
2022/08/10 12:24:32;;;;;;;1.35;1.10;;;;;;;18.81;92.28;102345.53;20896394;28;20075;-81
2022/08/10 12:34:43;;;;;;;1.30;0.88;;;;;;;18.82;91.78;102335.59;20920600;28;20056;-82
2022/08/10 12:45:00;;;;;;;1.30;0.98;;;;;;;18.73;91.59;102325.47;20886808;28;20464;-81
2022/08/10 12:55:03;;;;;;;1.42;0.90;;;;;;;18.83;91.58;102324.72;20878279;28;20114;-79
2022/08/10 13:05:09;;;;;;;2.58;0.98;;;;;;;18.77;91.74;102308.09;20894529;28;20051;-80
2022/08/10 13:15:19;;;;;;;1.60;1.15;;;;;;;18.88;92.24;102310.88;20903283;28;20127;-79
2022/08/10 13:25:47;;;;;;;1.17;0.98;;;;;;;18.67;92.41;102256.59;20910850;28;20428;-79
2022/08/10 13:35:49;;;;;;;1.45;1.17;;;;;;;18.87;92.37;102278.63;20896908;28;20069;-78
2022/08/10 13:45:58;;;;;;;1.10;1.00;;;;;;;18.95;92.46;102293.28;20897385;28;20060;-77
2022/08/10 13:56:00;;;;;;;0.95;0.70;;;;;;;18.99;91.98;102277.78;20900423;28;20118;-77
2022/08/10 14:06:04;;;;;;;1.63;0.75;;;;;;;18.98;91.64;102258.00;20900470;28;20052;-79
2022/08/10 14:16:06;;;;;;;1.23;1.00;;;;;;;18.86;91.26;102228.34;20910765;28;20072;-79
2022/08/10 14:26:09;;;;;;;1.35;1.00;;;;;;;19.02;91.58;102245.16;20912890;28;20591;-79
2022/08/10 14:36:22;;;;;;;1.38;0.88;;;;;;;19.03;91.66;102236.09;20882626;28;20048;-81
2022/08/10 14:46:26;;;;;;;1.48;1.10;;;;;;;18.81;91.52;102193.56;20889020;28;20128;-81
2022/08/10 14:56:32;;;;;;;1.60;0.85;;;;;;;18.84;91.48;102196.94;20881407;28;22389;-81
2022/08/10 15:06:48;;;;;;;1.73;1.00;;;;;;;18.90;91.79;102201.00;20889393;28;20408;-81
2022/08/10 15:16:55;;;;;;;1.35;0.88;;;;;;;18.69;91.29;102162.94;20887763;28;20064;-80
2022/08/10 15:26:58;;;;;;;1.70;1.00;;;;;;;19.03;91.42;102214.50;20891828;28;20401;-82
2022/08/10 15:37:12;;;;;;;1.85;0.80;;;;;;;18.83;91.61;102180.84;20900749;28;20135;-82
2022/08/10 15:47:41;;;;;;;1.80;1.02;;;;;;;18.95;91.24;102189.88;20901807;28;20056;-83
2022/08/10 15:58:03;;;;;;;3.28;1.17;;;;;;;19.02;91.34;102203.84;20898433;28;20148;-81
2022/08/10 16:08:07;;;;;;;2.30;0.80;;;;;;;19.01;91.12;102199.41;20881798;28;20060;-81
2022/08/10 16:18:12;;;;;;;2.13;1.13;;;;;;;18.86;90.99;102160.88;20882320;28;20053;-81
2022/08/10 16:28:14;;;;;;;1.30;0.82;;;;;;;19.02;90.96;102176.84;20901406;28;20098;-82
2022/08/10 16:38:24;;;;;;;1.63;0.93;;;;;;;18.78;90.93;102129.06;20907081;28;20057;-82
2022/08/10 16:48:32;;;;;;;1.08;1.00;;;;;;;18.93;90.75;102154.91;20859999;28;20080;-84
2022/08/10 16:58:54;;;;;;;1.50;1.17;;;;;;;19.01;91.42;102151.69;20884365;28;20084;-81
2022/08/10 17:08:58;;;;;;;1.50;1.27;;;;;;;18.91;92.42;102131.72;20890757;28;20049;-83
2022/08/10 17:19:01;;;;;;;1.63;1.40;;;;;;;19.01;92.84;102150.84;20875090;28;20072;-82
2022/08/10 17:29:26;;;;;;;1.98;1.38;;;;;;;18.87;93.18;102133.78;20864049;28;20118;-82
2022/08/10 17:39:56;;;;;;;2.83;2.05;;;;;;;18.70;93.36;102094.53;20890653;28;20053;-84
2022/08/10 17:49:59;;;;;;;2.65;1.30;;;;;;;18.97;94.05;102134.84;20879160;28;20409;-84
2022/08/10 18:00:02;;;;;;;1.98;1.60;;;;;;;18.96;94.32;102133.09;20870262;28;20179;-82
2022/08/10 18:10:08;;;;;;;1.90;1.33;;;;;;;18.95;94.19;102131.34;20915351;28;20127;-80
2022/08/10 18:20:10;;;;;;;2.53;1.40;;;;;;;18.95;93.66;102144.84;20911026;28;20152;-80
2022/08/10 18:30:13;;;;;;;2.20;1.40;;;;;;;18.87;93.80;102132.91;20922811;28;20040;-81
2022/08/10 18:40:16;;;;;;;2.10;1.40;;;;;;;18.94;93.85;102162.03;20906109;28;20080;-82
2022/08/10 18:50:23;;;;;;;2.05;1.40;;;;;;;18.57;94.36;102096.41;20881699;28;20082;-83
2022/08/10 19:01:07;;;;;;;1.90;1.25;;;;;;;18.79;94.15;102128.06;20944691;28;20542;-80
2022/08/10 19:11:31;;;;;;;1.67;1.48;;;;;;;18.93;94.38;102154.91;20933553;28;20060;-81
2022/08/10 19:21:38;;;;;;;2.83;1.48;;;;;;;18.93;94.40;102164.84;20961265;28;20448;-80
2022/08/10 19:32:00;;;;;;;1.30;1.20;;;;;;;18.93;94.48;102168.38;20958859;28;20044;-81
2022/08/10 19:42:08;;;;;;;1.55;1.35;;;;;;;18.92;94.49;102169.38;20958786;28;20048;-80
2022/08/10 19:52:30;;;;;;;1.50;1.40;;;;;;;18.92;94.34;102158.56;21026755;28;20138;-80
2022/08/10 20:02:35;;;;;;;2.25;1.33;;;;;;;18.78;94.30;102139.84;21042792;28;20056;-80
2022/08/10 20:12:51;;;;;;;1.88;1.60;;;;;;;18.84;94.52;102167.25;21024592;28;20051;-80
2022/08/10 20:23:16;;;;;;;1.40;1.30;;;;;;;18.91;94.96;102181.13;21024377;28;20052;-80
2022/08/10 20:33:32;;;;;;;1.37;1.27;;;;;;;18.69;94.85;102136.84;21039351;28;20056;-80
2022/08/10 20:43:40;;;;;;;1.30;1.10;;;;;;;17.98;94.86;102034.91;20988872;28;20136;-80
2022/08/10 20:53:55;;;;;;;1.35;1.25;;;;;;;18.69;95.35;102147.63;21054086;28;20131;-80
2022/08/10 21:04:37;;;;;;;1.77;1.37;;;;;;;18.70;95.84;102145.78;21053876;28;20389;-80
2022/08/10 21:14:51;;;;;;;1.45;1.35;;;;;;;18.90;95.88;102189.34;21054295;28;20504;-80
2022/08/10 21:24:55;;;;;;;1.58;1.35;;;;;;;18.89;95.81;102196.56;21051937;28;20129;-80
2022/08/10 22:59:00;;;;;;;1.55;1.35;;;;;;;18.88;96.74;102183.22;20961546;28;20059;-80
2022/08/10 23:09:03;;;;;;;1.67;1.52;;;;;;;18.86;96.67;102169.81;20960253;28;20084;-80
2022/08/10 23:29:15;;;;;;;1.40;1.23;;;;;;;18.86;96.50;102164.41;20959480;28;20049;-80
2022/08/10 23:39:17;;;;;;;1.50;1.40;;;;;;;18.77;96.31;102159.69;20958747;28;20078;-80
2022/08/10 23:49:35;;;;;;;1.65;1.35;;;;;;;18.85;96.46;102154.59;21038617;28;20051;-80
2022/08/10 23:59:37;;;;;;;1.52;1.42;;;;;;;18.85;96.38;102165.41;21040948;28;20050;-80
